createdAt,value
2018-12-29T00:02:45.609Z,100899.50
2018-12-29T00:05:31.944Z,101068.11
2018-12-29T00:08:18.262Z,101073.75
2018-12-29T00:11:04.552Z,101072.67
2018-12-29T00:13:50.874Z,101076.12
2018-12-29T00:16:36.942Z,100819.86
2018-12-29T00:19:23.286Z,101078.85
2018-12-29T00:22:09.614Z,101095.75
2018-12-29T00:24:55.952Z,100822.69
2018-12-29T00:27:42.099Z,101092.36
2018-12-29T00:30:28.214Z,100889.58
2018-12-29T00:33:14.279Z,101019.40
2018-12-29T00:36:00.672Z,100910.72
2018-12-29T00:38:47.034Z,101083.84
2018-12-29T00:41:33.374Z,101090.99
2018-12-29T00:44:19.452Z,101100.34
2018-12-29T00:46:59.464Z,101094.87
2018-12-29T00:49:45.812Z,101097.05
2018-12-29T00:52:31.987Z,101117.09
2018-12-29T00:55:18.066Z,100853.33
2018-12-29T00:58:04.407Z,101099.73
2018-12-29T01:00:50.797Z,100932.78
2018-12-29T01:03:36.865Z,101104.24
2018-12-29T01:06:23.217Z,101110.38
2018-12-29T01:09:09.573Z,101116.94
2018-12-29T01:11:55.933Z,100812.88
2018-12-29T01:14:42.261Z,101119.86
2018-12-29T01:17:28.613Z,101129.36
2018-12-29T01:20:14.938Z,100900.14
2018-12-29T01:23:01.054Z,101117.34
2018-12-29T01:25:47.228Z,101129.11
2018-12-29T01:28:33.326Z,101124.72
2018-12-29T01:31:19.423Z,101118.69
2018-12-29T01:34:05.541Z,101115.07
2018-12-29T01:36:51.886Z,100957.88
2018-12-29T01:39:38.242Z,101111.14
2018-12-29T01:42:24.643Z,101120.25
2018-12-29T01:45:17.102Z,100962.41
2018-12-29T01:47:58.744Z,101123.31
2018-12-29T01:50:44.852Z,101117.06
2018-12-29T01:53:31.230Z,100971.63
2018-12-29T01:56:17.335Z,100991.62
2018-12-29T01:59:03.452Z,101110.90
2018-12-29T02:01:49.808Z,101115.02
2018-12-29T02:04:35.903Z,100842.76
2018-12-29T02:10:15.948Z,101087.41
2018-12-29T02:13:21.945Z,101087.80
2018-12-29T02:16:08.017Z,101113.63
2018-12-29T02:18:54.108Z,100917.16
2018-12-29T02:21:40.250Z,101079.85
2018-12-29T02:24:26.568Z,101102.88
2018-12-29T02:27:12.863Z,101104.25
2018-12-29T02:29:59.194Z,100934.36
2018-12-29T02:32:45.278Z,100913.67
2018-12-29T02:35:31.344Z,101096.30
2018-12-29T02:38:17.690Z,101095.75
2018-12-29T02:41:03.770Z,101091.47
2018-12-29T02:43:50.096Z,101090.06
2018-12-29T02:46:29.923Z,101082.84
2018-12-29T02:49:16.289Z,101071.03
2018-12-29T02:52:02.628Z,100965.67
2018-12-29T02:54:48.965Z,101076.00
2018-12-29T02:57:35.069Z,100818.21
2018-12-29T03:00:21.409Z,100979.52
2018-12-29T03:03:07.538Z,101062.19
2018-12-29T03:05:53.850Z,100959.78
2018-12-29T03:08:40.225Z,101046.05
2018-12-29T03:11:26.313Z,101047.51
2018-12-29T03:14:12.679Z,101047.70
2018-12-29T03:16:58.763Z,101071.86
2018-12-29T03:19:44.845Z,100798.77
2018-12-29T03:22:30.955Z,100845.81
2018-12-29T03:25:17.029Z,100946.88
2018-12-29T03:28:03.388Z,101050.07
2018-12-29T03:30:49.441Z,101031.62
2018-12-29T03:33:35.554Z,101049.02
2018-12-29T03:36:21.603Z,101035.41
2018-12-29T03:39:07.704Z,100917.56
2018-12-29T03:41:54.023Z,101025.21
2018-12-29T03:44:40.073Z,101032.34
2018-12-29T03:47:20.412Z,100941.08
2018-12-29T03:50:06.794Z,101032.01
2018-12-29T03:52:53.154Z,101044.25
2018-12-29T03:55:39.234Z,100911.42
2018-12-29T03:58:25.327Z,100794.73
2018-12-29T04:01:11.669Z,101030.00
2018-12-29T04:03:57.800Z,100756.01
2018-12-29T04:06:43.865Z,101055.35
2018-12-29T04:13:06.019Z,100729.13
2018-12-29T04:15:57.887Z,101033.28
2018-12-29T04:18:40.374Z,100870.96
2018-12-29T04:21:26.826Z,101026.56
2018-12-29T04:24:12.898Z,100984.91
2018-12-29T04:26:59.273Z,101044.50
2018-12-29T04:29:45.359Z,101025.35
2018-12-29T04:32:31.693Z,100847.77
2018-12-29T04:35:17.790Z,100869.58
2018-12-29T04:38:04.131Z,100937.70
2018-12-29T04:40:50.215Z,100942.61
2018-12-29T04:43:36.573Z,101041.95
2018-12-29T04:46:16.173Z,101051.61
2018-12-29T04:49:02.255Z,100871.25
2018-12-29T04:51:48.576Z,100954.25
2018-12-29T04:54:34.653Z,101034.23
2018-12-29T04:57:20.979Z,101041.23
2018-12-29T05:00:07.174Z,101040.28
2018-12-29T05:02:53.519Z,101064.09
2018-12-29T05:05:39.658Z,101052.96
2018-12-29T05:08:26.059Z,101048.62
2018-12-29T05:11:12.445Z,101045.33
2018-12-29T05:13:58.553Z,100795.87
2018-12-29T05:16:45.016Z,101038.62
2018-12-29T05:19:31.432Z,100767.76
2018-12-29T05:22:17.497Z,101061.97
2018-12-29T05:25:03.859Z,100960.93
2018-12-29T05:27:49.929Z,101019.02
2018-12-29T05:30:36.292Z,100959.95
2018-12-29T05:33:22.375Z,100945.77
2018-12-29T05:36:08.461Z,101059.18
2018-12-29T05:38:54.804Z,101024.28
2018-12-29T05:41:41.166Z,100937.89
2018-12-29T05:44:47.118Z,100800.84
2018-12-29T05:47:28.138Z,101020.17
2018-12-29T05:50:14.203Z,101037.20
2018-12-29T05:53:00.281Z,100972.59
2018-12-29T05:55:46.664Z,101066.30
2018-12-29T05:58:32.958Z,100879.12
2018-12-29T06:01:19.028Z,100973.59
2018-12-29T06:04:05.113Z,100960.31
2018-12-29T06:06:51.446Z,100873.50
2018-12-29T06:09:37.824Z,101057.07
2018-12-29T06:12:23.899Z,100779.23
2018-12-29T06:15:10.014Z,101058.64
2018-12-29T06:17:56.094Z,100801.33
2018-12-29T06:20:42.435Z,101049.59
2018-12-29T06:23:28.762Z,100887.71
2018-12-29T06:26:14.865Z,100897.94
2018-12-29T06:29:01.174Z,101044.23
2018-12-29T06:31:47.519Z,100967.84
2018-12-29T06:34:33.569Z,100754.19
2018-12-29T06:37:19.643Z,101066.63
2018-12-29T06:40:06.000Z,101069.80
2018-12-29T06:42:52.051Z,100801.20
2018-12-29T06:45:38.136Z,101062.37
2018-12-29T06:48:17.924Z,100803.59
2018-12-29T06:51:04.003Z,101056.72
2018-12-29T06:53:50.082Z,101057.16
2018-12-29T06:56:36.193Z,101064.45
2018-12-29T06:59:22.556Z,101067.94
2018-12-29T07:02:08.640Z,100879.09
2018-12-29T07:04:54.982Z,101079.41
2018-12-29T07:07:41.070Z,100852.66
2018-12-29T07:10:27.176Z,101087.21
2018-12-29T07:13:13.401Z,101082.91
2018-12-29T07:15:59.491Z,101086.66
2018-12-29T07:18:45.602Z,101072.23
2018-12-29T07:21:31.735Z,101083.31
2018-12-29T07:24:18.082Z,101077.30
2018-12-29T07:27:04.187Z,100806.05
2018-12-29T07:29:50.278Z,101075.23
2018-12-29T07:32:36.358Z,100815.92
2018-12-29T07:35:22.675Z,101077.30
2018-12-29T07:38:09.016Z,101087.80
2018-12-29T07:40:55.428Z,101091.52
2018-12-29T07:43:41.748Z,101103.72
2018-12-29T07:46:21.115Z,101102.33
2018-12-29T07:49:07.212Z,101021.09
2018-12-29T07:51:53.374Z,101098.25
2018-12-29T07:54:39.808Z,101105.11
2018-12-29T07:57:26.171Z,100871.61
2018-12-29T08:00:12.510Z,100977.40
2018-12-29T08:02:58.606Z,101016.13
2018-12-29T08:05:44.697Z,101106.78
2018-12-29T08:08:30.792Z,101104.25
2018-12-29T08:11:17.163Z,101103.72
2018-12-29T08:14:03.248Z,101116.05
2018-12-29T08:16:56.668Z,101104.75
2018-12-29T08:19:37.628Z,100849.25
2018-12-29T08:22:24.185Z,101120.30
2018-12-29T08:25:11.718Z,101119.33
2018-12-29T08:27:57.820Z,101043.13
2018-12-29T08:30:44.187Z,101124.77
2018-12-29T08:33:30.288Z,100962.29
2018-12-29T08:36:16.692Z,101138.06
2018-12-29T08:39:24.795Z,100874.68
2018-12-29T08:42:11.145Z,100816.20
2018-12-29T08:44:57.227Z,101138.52
2018-12-29T08:47:38.200Z,100950.04
2018-12-29T08:50:24.291Z,101140.19
2018-12-29T08:53:10.378Z,100911.34
2018-12-29T08:55:56.744Z,100895.92
2018-12-29T08:58:42.852Z,100925.89
2018-12-29T09:01:49.089Z,101119.11
2018-12-29T09:04:35.415Z,100946.86
2018-12-29T09:07:21.792Z,101112.52
2018-12-29T09:10:07.922Z,101033.98
2018-12-29T09:12:54.261Z,100825.69
2018-12-29T09:15:40.366Z,100918.84
2018-12-29T09:21:19.175Z,100945.95
2018-12-29T09:24:05.507Z,101127.70
2018-12-29T09:26:51.598Z,101122.45
2018-12-29T09:29:37.700Z,101133.97
2018-12-29T09:32:24.040Z,101039.17
2018-12-29T09:35:10.430Z,101122.27
2018-12-29T09:37:56.527Z,101120.17
2018-12-29T09:40:42.592Z,101141.14
2018-12-29T09:43:28.684Z,100848.25
2018-12-29T09:46:15.022Z,101117.98
2018-12-29T09:48:55.274Z,101128.36
2018-12-29T09:51:41.599Z,101131.52
2018-12-29T09:54:27.874Z,100919.53
2018-12-29T09:57:13.948Z,100942.34
2018-12-29T10:00:00.350Z,100840.22
2018-12-29T10:02:46.697Z,101015.51
2018-12-29T10:05:32.745Z,100992.38
2018-12-29T10:08:18.851Z,100978.42
2018-12-29T10:11:05.195Z,101087.17
2018-12-29T10:13:51.274Z,100853.87
2018-12-29T10:16:37.627Z,101014.53
2018-12-29T10:19:23.718Z,101077.75
2018-12-29T10:22:10.285Z,100985.08
2018-12-29T10:24:56.610Z,100927.91
2018-12-29T10:27:42.708Z,101103.77
2018-12-29T10:30:28.797Z,101089.70
2018-12-29T10:33:14.896Z,100877.73
2018-12-29T10:36:00.988Z,101001.56
2018-12-29T10:38:47.339Z,101079.23
2018-12-29T10:41:33.767Z,101075.53
2018-12-29T10:44:20.089Z,101072.66
2018-12-29T10:47:06.226Z,101084.34
2018-12-29T10:49:52.589Z,101057.58
2018-12-29T10:52:38.673Z,101072.32
2018-12-29T10:55:24.720Z,100889.35
2018-12-29T10:58:10.937Z,100954.74
2018-12-29T11:00:57.252Z,101054.67
2018-12-29T11:03:43.356Z,100794.58
2018-12-29T11:06:29.479Z,101049.61
2018-12-29T11:09:15.554Z,100883.30
2018-12-29T11:12:01.843Z,100952.34
2018-12-29T11:14:47.939Z,101042.83
2018-12-29T11:17:34.033Z,101018.38
2018-12-29T11:20:20.390Z,101035.58
2018-12-29T11:23:06.496Z,100952.42
2018-12-29T11:25:53.103Z,101043.67
2018-12-29T11:28:39.241Z,101050.21
2018-12-29T11:31:25.646Z,101037.30
2018-12-29T11:34:33.773Z,101022.70
2018-12-29T11:37:19.850Z,100835.75
2018-12-29T11:40:06.046Z,101013.42
2018-12-29T11:42:52.131Z,101006.07
2018-12-29T11:45:38.467Z,101007.04
2018-12-29T11:48:19.539Z,101017.92
2018-12-29T11:50:45.977Z,101004.62
2018-12-29T11:53:12.408Z,100988.47
2018-12-29T11:55:38.621Z,100985.86
2018-12-29T11:58:04.785Z,100988.65
2018-12-29T12:00:51.136Z,100983.38
2018-12-29T12:03:17.412Z,100984.53
2018-12-29T12:06:03.771Z,100966.78
2018-12-29T12:08:50.106Z,100977.77
2018-12-29T12:11:36.454Z,100996.75
2018-12-29T12:14:02.764Z,100811.94
2018-12-29T12:16:49.121Z,100978.89
2018-12-29T12:19:22.993Z,100677.06
2018-12-29T12:22:09.374Z,100962.09
2018-12-29T12:24:55.465Z,100893.20
2018-12-29T12:27:41.809Z,100952.84
2018-12-29T12:30:28.160Z,100872.50
2018-12-29T12:33:14.518Z,100744.00
2018-12-29T12:36:00.883Z,100955.52
2018-12-29T12:38:46.952Z,100791.72
2018-12-29T12:41:33.050Z,100958.61
2018-12-29T12:44:19.460Z,100690.20
2018-12-29T12:47:05.795Z,100805.02
2018-12-29T12:49:45.908Z,100940.25
2018-12-29T12:52:32.223Z,100946.38
2018-12-29T12:55:18.601Z,100914.06
2018-12-29T12:58:04.854Z,100782.31
2018-12-29T13:00:52.849Z,100939.64
2018-12-29T13:03:39.331Z,100823.77
2018-12-29T13:06:25.422Z,100858.47
2018-12-29T13:09:11.743Z,100878.30
2018-12-29T13:11:58.085Z,100940.22
2018-12-29T13:14:44.156Z,100691.05
2018-12-29T13:17:30.379Z,100948.98
2018-12-29T13:20:16.713Z,100854.16
2018-12-29T13:23:02.995Z,100930.80
2018-12-29T13:25:49.340Z,100617.52
2018-12-29T13:28:37.583Z,100933.20
2018-12-29T13:31:23.896Z,100739.05
2018-12-29T13:34:10.271Z,100700.64
2018-12-29T13:36:56.575Z,100740.86
2018-12-29T13:39:42.692Z,100925.77
2018-12-29T13:42:28.767Z,100855.59
2018-12-29T13:45:15.329Z,100900.08
2018-12-29T13:47:54.871Z,100752.31
2018-12-29T13:50:40.965Z,100793.84
2018-12-29T13:53:27.048Z,100920.08
2018-12-29T13:56:13.146Z,100817.73
2018-12-29T13:58:59.895Z,100926.16
2018-12-29T14:01:46.306Z,100914.34
2018-12-29T14:04:32.699Z,100916.84
2018-12-29T14:07:18.857Z,100909.92
2018-12-29T14:10:04.933Z,100912.73
2018-12-29T14:12:51.010Z,100599.16
2018-12-29T14:15:37.088Z,100732.36
2018-12-29T14:18:28.199Z,100918.23
2018-12-29T14:21:11.413Z,100915.23
2018-12-29T14:23:57.757Z,100750.50
2018-12-29T14:26:43.828Z,100910.03
2018-12-29T14:29:29.902Z,100889.78
2018-12-29T14:32:37.797Z,100906.20
2018-12-29T14:35:24.004Z,100905.34
2018-12-29T14:38:10.354Z,100909.13
2018-12-29T14:40:56.424Z,100912.97
2018-12-29T14:43:42.532Z,100899.61
2018-12-29T14:46:28.605Z,100913.80
2018-12-29T14:49:08.371Z,100790.72
2018-12-29T14:51:54.445Z,100921.31
2018-12-29T14:54:40.560Z,100935.34
2018-12-29T14:57:27.257Z,100933.80
2018-12-29T15:00:13.321Z,100934.27
2018-12-29T15:02:59.418Z,100765.37
2018-12-29T15:05:45.765Z,100831.78
2018-12-29T15:08:31.870Z,100924.23
2018-12-29T15:11:19.664Z,100764.47
2018-12-29T15:14:06.257Z,100730.78
2018-12-29T15:16:52.664Z,100903.08
2018-12-29T15:19:38.757Z,100746.71
2018-12-29T15:22:25.124Z,100665.09
2018-12-29T15:25:11.259Z,100817.80
2018-12-29T15:27:57.865Z,100631.31
2018-12-29T15:30:43.940Z,100914.58
2018-12-29T15:33:30.308Z,100918.50
2018-12-29T15:36:16.758Z,100900.80
2018-12-29T15:39:24.934Z,100889.41
2018-12-29T15:42:11.381Z,100890.75
2018-12-29T15:44:37.575Z,100893.64
2018-12-29T15:47:25.804Z,100897.94
2018-12-29T15:50:35.583Z,100908.59
2018-12-29T15:53:22.374Z,100881.05
2018-12-29T15:56:08.463Z,100869.41
2018-12-29T15:58:54.832Z,100880.41
2018-12-29T16:01:41.209Z,100868.57
2018-12-29T16:04:27.544Z,100653.60
2018-12-29T16:07:13.740Z,100566.37
2018-12-29T16:09:59.825Z,100774.17
2018-12-29T16:12:46.185Z,100850.79
2018-12-29T16:15:34.165Z,100669.12
2018-12-29T16:18:20.592Z,100868.03
2018-12-29T16:21:07.043Z,100754.41
2018-12-29T16:23:53.254Z,100760.98
2018-12-29T16:26:39.662Z,100738.00
2018-12-29T16:29:26.144Z,100817.41
2018-12-29T16:32:12.311Z,100642.73
2018-12-29T16:34:58.423Z,100795.21
2018-12-29T16:37:44.593Z,100709.03
2018-12-29T16:40:30.959Z,100804.78
2018-12-29T16:43:17.029Z,100802.33
2018-12-29T16:46:03.400Z,100695.91
2018-12-29T16:48:49.756Z,100791.36
2018-12-29T16:51:36.099Z,100789.73
2018-12-29T16:54:22.432Z,100788.40
2018-12-29T16:57:08.521Z,100782.19
2018-12-29T16:59:54.724Z,100788.55
2018-12-29T17:02:41.348Z,100788.83
2018-12-29T17:05:30.320Z,100788.33
2018-12-29T17:08:18.574Z,100780.09
2018-12-29T17:11:06.561Z,100789.39
2018-12-29T17:13:53.233Z,100794.38
2018-12-29T17:16:39.754Z,100606.22
2018-12-29T17:19:25.943Z,100782.66
2018-12-29T17:22:12.046Z,100766.73
2018-12-29T17:24:58.550Z,100527.36
2018-12-29T17:27:44.999Z,100735.36
2018-12-29T17:30:31.092Z,100439.45
2018-12-29T17:33:17.445Z,100763.05
2018-12-29T17:36:03.536Z,100750.66
2018-12-29T17:38:49.617Z,100764.42
2018-12-29T17:41:36.002Z,100658.52
2018-12-29T17:44:22.161Z,100733.60
2018-12-29T17:47:08.283Z,100745.37
2018-12-29T17:49:48.043Z,100659.62
2018-12-29T17:52:34.360Z,100610.09
2018-12-29T17:55:21.026Z,100736.92
2018-12-29T17:58:09.011Z,100687.43
2018-12-29T18:01:17.171Z,100565.27
2018-12-29T18:04:03.552Z,100573.61
2018-12-29T18:06:49.852Z,100653.80
2018-12-29T18:09:35.919Z,100567.47
2018-12-29T18:12:22.276Z,100730.82
2018-12-29T18:15:10.518Z,100742.48
2018-12-29T18:17:58.763Z,100617.24
2018-12-29T18:20:44.877Z,100747.92
2018-12-29T18:23:31.327Z,100745.20
2018-12-29T18:26:17.532Z,100595.77
2018-12-29T18:29:03.625Z,100540.77
2018-12-29T18:31:49.812Z,100743.95
2018-12-29T18:34:36.165Z,100520.86
2018-12-29T18:37:22.722Z,100756.43
2018-12-29T18:40:09.115Z,100584.05
2018-12-29T18:42:55.289Z,100556.16
2018-12-29T18:45:41.690Z,100450.52
2018-12-29T18:48:28.108Z,100749.61
2018-12-29T18:51:09.679Z,100778.00
2018-12-29T18:53:56.041Z,100509.30
2018-12-29T18:56:45.588Z,100745.14
2018-12-29T18:59:30.655Z,100756.35
2018-12-29T19:02:17.301Z,100747.87
2018-12-29T19:05:03.574Z,100581.84
2018-12-29T19:07:49.666Z,100513.02
2018-12-29T19:10:36.039Z,100724.38
2018-12-29T19:13:24.278Z,100735.00
2018-12-29T19:16:12.301Z,100521.95
2018-12-29T19:18:58.384Z,100653.97
2018-12-29T19:21:44.448Z,100680.86
2018-12-29T19:24:30.869Z,100650.41
2018-12-29T19:27:17.034Z,100352.97
2018-12-29T19:30:25.496Z,100632.66
2018-12-29T19:33:13.579Z,100340.60
2018-12-29T19:36:00.006Z,100585.74
2018-12-29T19:38:46.355Z,100445.27
2018-12-29T19:41:34.339Z,100566.63
2018-12-29T19:44:20.710Z,100562.05
2018-12-29T19:47:09.000Z,100541.58
2018-12-29T19:49:53.553Z,100561.38
2018-12-29T19:52:36.819Z,100285.30
2018-12-29T19:55:23.180Z,100545.36
2018-12-29T19:58:09.420Z,100354.06
2018-12-29T20:01:15.723Z,100435.18
2018-12-29T20:04:01.884Z,100564.75
2018-12-29T20:06:48.225Z,100252.91
2018-12-29T20:09:34.345Z,100409.25
2018-12-29T20:12:20.401Z,100205.94
2018-12-29T20:15:06.603Z,100347.34
2018-12-29T20:17:52.972Z,100130.83
2018-12-29T20:20:39.056Z,100263.91
2018-12-29T20:23:25.618Z,100223.81
2018-12-29T20:26:11.679Z,100457.70
2018-12-29T20:28:58.064Z,100473.08
2018-12-29T20:31:44.124Z,100223.96
2018-12-29T20:34:30.257Z,100485.59
2018-12-29T20:37:16.417Z,100464.09
2018-12-29T20:40:24.718Z,100196.34
2018-12-29T20:43:10.836Z,100371.08
2018-12-29T20:45:57.211Z,100171.25
2018-12-29T20:48:43.313Z,100433.50
2018-12-29T20:51:23.906Z,100185.28
2018-12-29T20:54:09.994Z,100245.75
2018-12-29T20:56:56.317Z,100415.23
2018-12-29T20:59:42.389Z,100400.19
2018-12-29T21:02:28.450Z,100367.99
2018-12-29T21:05:14.850Z,100412.53
2018-12-29T21:08:01.170Z,100239.24
2018-12-29T21:10:47.515Z,100240.66
2018-12-29T21:13:33.861Z,100387.47
2018-12-29T21:16:20.284Z,100282.31
2018-12-29T21:19:08.660Z,100381.48
2018-12-29T21:21:55.084Z,100356.27
2018-12-29T21:24:42.283Z,100375.25
2018-12-29T21:27:28.390Z,100362.40
2018-12-29T21:30:14.756Z,100171.30
2018-12-29T21:33:00.851Z,100147.14
2018-12-29T21:35:46.970Z,100332.08
2018-12-29T21:38:33.160Z,100324.37
2018-12-29T21:41:19.516Z,100319.13
2018-12-29T21:44:07.796Z,100311.66
2018-12-29T21:46:54.129Z,100309.05
2018-12-29T21:49:20.624Z,100094.33
2018-12-29T21:51:48.753Z,100302.63
2018-12-29T21:54:34.831Z,100296.34
2018-12-29T21:57:21.625Z,99962.76
2018-12-29T22:00:08.134Z,100024.36
2018-12-29T22:02:54.238Z,100147.79
2018-12-29T22:05:21.242Z,100085.53
2018-12-29T22:08:07.583Z,100278.98
2018-12-29T22:10:53.928Z,100175.38
2018-12-29T22:13:40.315Z,100276.94
2018-12-29T22:16:26.684Z,100272.33
2018-12-29T22:19:13.000Z,100265.69
2018-12-29T22:21:59.078Z,100191.85
2018-12-29T22:24:45.402Z,100040.80
2018-12-29T22:27:31.755Z,100169.88
2018-12-29T22:30:18.105Z,100086.53
2018-12-29T22:33:04.225Z,100252.91
2018-12-29T22:35:50.643Z,100259.03
2018-12-29T22:38:38.624Z,100227.37
2018-12-29T22:41:24.733Z,100063.31
2018-12-29T22:44:10.932Z,100197.88
2018-12-29T22:46:57.006Z,100253.28
2018-12-29T22:49:43.389Z,100013.88
2018-12-29T22:52:23.590Z,100221.06
2018-12-29T22:55:09.681Z,100215.02
2018-12-29T22:57:55.977Z,99948.13
2018-12-29T23:01:03.836Z,100201.22
2018-12-29T23:03:51.810Z,100191.72
2018-12-29T23:06:38.138Z,99914.01
2018-12-29T23:09:26.118Z,100088.80
2018-12-29T23:12:12.204Z,100181.31
2018-12-29T23:14:58.627Z,100180.41
2018-12-29T23:17:45.581Z,100190.23
2018-12-29T23:20:31.932Z,100179.22
2018-12-29T23:23:18.026Z,100202.15
2018-12-29T23:26:04.695Z,100172.08
2018-12-29T23:28:50.815Z,100162.91
2018-12-29T23:31:37.253Z,100179.63
2018-12-29T23:34:23.607Z,100169.09
2018-12-29T23:37:10.080Z,100157.80
2018-12-29T23:39:56.176Z,100142.97
2018-12-29T23:42:42.636Z,100079.75
2018-12-29T23:45:28.963Z,100142.90
2018-12-29T23:48:15.060Z,100144.30
2018-12-29T23:51:05.336Z,100039.94
2018-12-29T23:53:43.234Z,100018.02
2018-12-29T23:56:31.189Z,100147.59
2018-12-29T23:59:17.281Z,100144.97
